sensor_id;sensor_type;location;lat;lon;timestamp;P1;durP1;ratioP1;P2;durP2;ratioP2
76761;SDS011;65705;51.032;13.790;2023-04-06T00:01:39;6.38;;;2.95;;
76761;SDS011;65705;51.032;13.790;2023-04-06T00:04:05;7.05;;;3.25;;
76761;SDS011;65705;51.032;13.790;2023-04-06T00:06:31;9.10;;;3.42;;
76761;SDS011;65705;51.032;13.790;2023-04-06T00:08:58;6.35;;;3.35;;
76761;SDS011;65705;51.032;13.790;2023-04-06T00:11:25;8.20;;;3.28;;
76761;SDS011;65705;51.032;13.790;2023-04-06T00:13:51;6.07;;;3.00;;
76761;SDS011;65705;51.032;13.790;2023-04-06T00:16:17;8.18;;;3.58;;
76761;SDS011;65705;51.032;13.790;2023-04-06T00:18:43;11.20;;;3.30;;
76761;SDS011;65705;51.032;13.790;2023-04-06T00:21:12;7.25;;;2.88;;
76761;SDS011;65705;51.032;13.790;2023-04-06T00:26:06;11.07;;;3.15;;
76761;SDS011;65705;51.032;13.790;2023-04-06T00:28:31;7.65;;;3.10;;
76761;SDS011;65705;51.032;13.790;2023-04-06T00:30:57;7.15;;;2.83;;
76761;SDS011;65705;51.032;13.790;2023-04-06T00:33:23;8.27;;;2.95;;
76761;SDS011;65705;51.032;13.790;2023-04-06T00:35:50;6.15;;;2.72;;
76761;SDS011;65705;51.032;13.790;2023-04-06T00:38:16;9.90;;;3.00;;
76761;SDS011;65705;51.032;13.790;2023-04-06T00:40:42;6.00;;;2.67;;
76761;SDS011;65705;51.032;13.790;2023-04-06T00:43:10;6.72;;;3.00;;
76761;SDS011;65705;51.032;13.790;2023-04-06T00:45:40;5.55;;;2.60;;
76761;SDS011;65705;51.032;13.790;2023-04-06T00:48:07;7.72;;;3.15;;
76761;SDS011;65705;51.032;13.790;2023-04-06T00:50:33;7.10;;;2.80;;
76761;SDS011;65705;51.032;13.790;2023-04-06T00:53:00;7.70;;;2.88;;
76761;SDS011;65705;51.032;13.790;2023-04-06T00:55:27;6.10;;;2.42;;
76761;SDS011;65705;51.032;13.790;2023-04-06T00:57:54;8.93;;;3.10;;
76761;SDS011;65705;51.032;13.790;2023-04-06T01:00:22;6.68;;;3.30;;
76761;SDS011;65705;51.032;13.790;2023-04-06T01:02:56;6.43;;;2.92;;
76761;SDS011;65705;51.032;13.790;2023-04-06T01:05:29;10.10;;;3.42;;
76761;SDS011;65705;51.032;13.790;2023-04-06T01:07:57;5.50;;;2.42;;
76761;SDS011;65705;51.032;13.790;2023-04-06T01:10:27;7.65;;;3.05;;
76761;SDS011;65705;51.032;13.790;2023-04-06T01:13:17;11.02;;;2.72;;
76761;SDS011;65705;51.032;13.790;2023-04-06T01:16:00;7.95;;;2.70;;
76761;SDS011;65705;51.032;13.790;2023-04-06T01:18:37;7.00;;;2.97;;
76761;SDS011;65705;51.032;13.790;2023-04-06T01:21:16;6.43;;;2.97;;
76761;SDS011;65705;51.032;13.790;2023-04-06T01:23:58;3.88;;;2.17;;
76761;SDS011;65705;51.032;13.790;2023-04-06T01:26:31;10.48;;;3.28;;
76761;SDS011;65705;51.032;13.790;2023-04-06T01:29:00;6.65;;;3.10;;
76761;SDS011;65705;51.032;13.790;2023-04-06T01:31:28;6.13;;;2.55;;
76761;SDS011;65705;51.032;13.790;2023-04-06T01:33:54;7.28;;;2.60;;
76761;SDS011;65705;51.032;13.790;2023-04-06T01:36:22;6.70;;;3.05;;
76761;SDS011;65705;51.032;13.790;2023-04-06T01:38:56;7.05;;;2.70;;
76761;SDS011;65705;51.032;13.790;2023-04-06T01:41:30;6.45;;;2.80;;
76761;SDS011;65705;51.032;13.790;2023-04-06T01:43:56;5.80;;;2.97;;
76761;SDS011;65705;51.032;13.790;2023-04-06T01:46:26;5.90;;;2.50;;
76761;SDS011;65705;51.032;13.790;2023-04-06T01:48:52;5.30;;;2.67;;
76761;SDS011;65705;51.032;13.790;2023-04-06T01:51:47;6.03;;;2.50;;
76761;SDS011;65705;51.032;13.790;2023-04-06T01:54:13;9.35;;;2.67;;
76761;SDS011;65705;51.032;13.790;2023-04-06T01:56:54;11.57;;;3.35;;
76761;SDS011;65705;51.032;13.790;2023-04-06T01:59:33;7.82;;;2.70;;
76761;SDS011;65705;51.032;13.790;2023-04-06T02:02:04;8.13;;;3.05;;
76761;SDS011;65705;51.032;13.790;2023-04-06T02:04:31;12.98;;;3.33;;
76761;SDS011;65705;51.032;13.790;2023-04-06T02:07:07;8.50;;;3.03;;
76761;SDS011;65705;51.032;13.790;2023-04-06T02:09:33;8.10;;;2.78;;
76761;SDS011;65705;51.032;13.790;2023-04-06T02:11:59;7.63;;;2.85;;
76761;SDS011;65705;51.032;13.790;2023-04-06T02:14:27;7.43;;;2.60;;
76761;SDS011;65705;51.032;13.790;2023-04-06T02:16:57;6.00;;;2.55;;
76761;SDS011;65705;51.032;13.790;2023-04-06T02:19:23;9.00;;;3.30;;
76761;SDS011;65705;51.032;13.790;2023-04-06T02:21:48;8.68;;;3.03;;
76761;SDS011;65705;51.032;13.790;2023-04-06T02:24:14;6.80;;;2.78;;
76761;SDS011;65705;51.032;13.790;2023-04-06T02:26:40;8.93;;;2.67;;
76761;SDS011;65705;51.032;13.790;2023-04-06T02:29:06;8.73;;;2.90;;
76761;SDS011;65705;51.032;13.790;2023-04-06T02:31:32;6.03;;;2.80;;
76761;SDS011;65705;51.032;13.790;2023-04-06T02:33:59;7.40;;;3.00;;
76761;SDS011;65705;51.032;13.790;2023-04-06T02:36:25;7.47;;;2.78;;
76761;SDS011;65705;51.032;13.790;2023-04-06T02:38:51;8.32;;;3.40;;
76761;SDS011;65705;51.032;13.790;2023-04-06T02:41:17;7.97;;;3.20;;
76761;SDS011;65705;51.032;13.790;2023-04-06T02:43:44;8.20;;;3.25;;
76761;SDS011;65705;51.032;13.790;2023-04-06T02:46:17;11.57;;;3.55;;
76761;SDS011;65705;51.032;13.790;2023-04-06T02:48:43;8.80;;;3.20;;
76761;SDS011;65705;51.032;13.790;2023-04-06T02:51:08;7.25;;;3.00;;
76761;SDS011;65705;51.032;13.790;2023-04-06T02:53:35;9.80;;;3.38;;
76761;SDS011;65705;51.032;13.790;2023-04-06T02:56:01;9.10;;;3.33;;
76761;SDS011;65705;51.032;13.790;2023-04-06T02:58:37;6.20;;;2.57;;
76761;SDS011;65705;51.032;13.790;2023-04-06T03:01:03;5.45;;;2.67;;
76761;SDS011;65705;51.032;13.790;2023-04-06T03:03:29;7.03;;;2.47;;
76761;SDS011;65705;51.032;13.790;2023-04-06T03:05:56;7.03;;;2.97;;
76761;SDS011;65705;51.032;13.790;2023-04-06T03:08:27;7.80;;;2.92;;
76761;SDS011;65705;51.032;13.790;2023-04-06T03:10:52;7.30;;;2.58;;
76761;SDS011;65705;51.032;13.790;2023-04-06T03:13:18;6.63;;;2.40;;
76761;SDS011;65705;51.032;13.790;2023-04-06T03:15:53;7.30;;;2.75;;
76761;SDS011;65705;51.032;13.790;2023-04-06T03:18:21;7.47;;;2.40;;
76761;SDS011;65705;51.032;13.790;2023-04-06T03:20:52;7.70;;;2.97;;
76761;SDS011;65705;51.032;13.790;2023-04-06T03:23:25;10.23;;;2.92;;
76761;SDS011;65705;51.032;13.790;2023-04-06T03:28:21;8.82;;;2.88;;
76761;SDS011;65705;51.032;13.790;2023-04-06T03:30:54;9.32;;;3.75;;
76761;SDS011;65705;51.032;13.790;2023-04-06T03:33:36;8.68;;;2.90;;
76761;SDS011;65705;51.032;13.790;2023-04-06T03:36:02;7.30;;;2.65;;
76761;SDS011;65705;51.032;13.790;2023-04-06T03:38:31;9.20;;;2.65;;
76761;SDS011;65705;51.032;13.790;2023-04-06T03:40:57;7.68;;;2.88;;
76761;SDS011;65705;51.032;13.790;2023-04-06T03:43:25;8.60;;;3.08;;
76761;SDS011;65705;51.032;13.790;2023-04-06T03:45:51;7.75;;;3.20;;
76761;SDS011;65705;51.032;13.790;2023-04-06T03:48:17;8.50;;;3.40;;
76761;SDS011;65705;51.032;13.790;2023-04-06T03:50:43;11.30;;;3.13;;
76761;SDS011;65705;51.032;13.790;2023-04-06T03:53:08;8.43;;;2.70;;
76761;SDS011;65705;51.032;13.790;2023-04-06T03:55:34;9.13;;;3.03;;
76761;SDS011;65705;51.032;13.790;2023-04-06T03:58:00;7.78;;;3.20;;
76761;SDS011;65705;51.032;13.790;2023-04-06T04:00:26;9.20;;;3.15;;
76761;SDS011;65705;51.032;13.790;2023-04-06T04:02:54;7.50;;;2.85;;
76761;SDS011;65705;51.032;13.790;2023-04-06T04:05:20;7.38;;;3.10;;
76761;SDS011;65705;51.032;13.790;2023-04-06T04:07:51;6.38;;;2.42;;
76761;SDS011;65705;51.032;13.790;2023-04-06T04:10:18;9.77;;;3.10;;
76761;SDS011;65705;51.032;13.790;2023-04-06T04:12:45;8.60;;;3.03;;
76761;SDS011;65705;51.032;13.790;2023-04-06T04:15:11;9.70;;;2.47;;
76761;SDS011;65705;51.032;13.790;2023-04-06T04:17:37;7.03;;;2.80;;
76761;SDS011;65705;51.032;13.790;2023-04-06T04:20:04;13.43;;;3.00;;
76761;SDS011;65705;51.032;13.790;2023-04-06T04:22:30;7.43;;;2.15;;
76761;SDS011;65705;51.032;13.790;2023-04-06T04:24:57;8.52;;;2.85;;
76761;SDS011;65705;51.032;13.790;2023-04-06T04:27:24;7.15;;;2.80;;
76761;SDS011;65705;51.032;13.790;2023-04-06T04:29:50;8.32;;;2.97;;
76761;SDS011;65705;51.032;13.790;2023-04-06T04:32:16;8.57;;;2.58;;
76761;SDS011;65705;51.032;13.790;2023-04-06T04:34:43;12.45;;;3.65;;
76761;SDS011;65705;51.032;13.790;2023-04-06T04:37:17;6.00;;;2.78;;
76761;SDS011;65705;51.032;13.790;2023-04-06T04:39:53;7.43;;;3.10;;
76761;SDS011;65705;51.032;13.790;2023-04-06T04:42:18;10.88;;;3.13;;
76761;SDS011;65705;51.032;13.790;2023-04-06T04:44:49;8.05;;;3.20;;
76761;SDS011;65705;51.032;13.790;2023-04-06T04:47:23;6.63;;;2.92;;
76761;SDS011;65705;51.032;13.790;2023-04-06T04:49:49;8.50;;;3.58;;
76761;SDS011;65705;51.032;13.790;2023-04-06T04:52:20;9.63;;;3.25;;
76761;SDS011;65705;51.032;13.790;2023-04-06T04:55:09;9.48;;;3.40;;
76761;SDS011;65705;51.032;13.790;2023-04-06T04:57:35;9.95;;;3.50;;
76761;SDS011;65705;51.032;13.790;2023-04-06T05:00:04;11.35;;;3.47;;
76761;SDS011;65705;51.032;13.790;2023-04-06T05:02:32;10.35;;;3.75;;
76761;SDS011;65705;51.032;13.790;2023-04-06T05:05:12;10.32;;;3.47;;
76761;SDS011;65705;51.032;13.790;2023-04-06T05:07:39;9.23;;;3.40;;
76761;SDS011;65705;51.032;13.790;2023-04-06T05:10:08;8.60;;;3.78;;
76761;SDS011;65705;51.032;13.790;2023-04-06T05:12:41;8.63;;;3.50;;
76761;SDS011;65705;51.032;13.790;2023-04-06T05:15:09;8.32;;;3.90;;
76761;SDS011;65705;51.032;13.790;2023-04-06T05:17:36;9.45;;;3.72;;
76761;SDS011;65705;51.032;13.790;2023-04-06T05:20:02;11.40;;;4.50;;
76761;SDS011;65705;51.032;13.790;2023-04-06T05:22:32;12.82;;;3.92;;
76761;SDS011;65705;51.032;13.790;2023-04-06T05:25:07;12.95;;;3.70;;
76761;SDS011;65705;51.032;13.790;2023-04-06T05:27:33;13.75;;;3.95;;
76761;SDS011;65705;51.032;13.790;2023-04-06T05:30:05;8.60;;;3.97;;
76761;SDS011;65705;51.032;13.790;2023-04-06T05:32:39;10.70;;;4.05;;
76761;SDS011;65705;51.032;13.790;2023-04-06T05:35:05;11.98;;;3.53;;
76761;SDS011;65705;51.032;13.790;2023-04-06T05:37:31;6.85;;;3.05;;
76761;SDS011;65705;51.032;13.790;2023-04-06T05:39:58;7.93;;;3.42;;
76761;SDS011;65705;51.032;13.790;2023-04-06T05:42:24;14.85;;;3.55;;
76761;SDS011;65705;51.032;13.790;2023-04-06T05:44:52;10.23;;;3.30;;
76761;SDS011;65705;51.032;13.790;2023-04-06T05:47:19;14.43;;;3.38;;
76761;SDS011;65705;51.032;13.790;2023-04-06T05:49:50;13.60;;;5.50;;
76761;SDS011;65705;51.032;13.790;2023-04-06T05:52:25;13.77;;;3.90;;
76761;SDS011;65705;51.032;13.790;2023-04-06T05:54:51;11.43;;;3.72;;
76761;SDS011;65705;51.032;13.790;2023-04-06T05:57:17;14.05;;;3.95;;
76761;SDS011;65705;51.032;13.790;2023-04-06T05:59:44;9.45;;;3.33;;
76761;SDS011;65705;51.032;13.790;2023-04-06T06:02:12;12.27;;;4.05;;
76761;SDS011;65705;51.032;13.790;2023-04-06T06:04:42;8.45;;;3.40;;
76761;SDS011;65705;51.032;13.790;2023-04-06T06:07:08;9.45;;;4.10;;
76761;SDS011;65705;51.032;13.790;2023-04-06T06:09:40;9.90;;;3.78;;
76761;SDS011;65705;51.032;13.790;2023-04-06T06:12:26;11.57;;;4.05;;
76761;SDS011;65705;51.032;13.790;2023-04-06T06:14:53;15.70;;;4.57;;
76761;SDS011;65705;51.032;13.790;2023-04-06T06:17:21;13.50;;;4.30;;
76761;SDS011;65705;51.032;13.790;2023-04-06T06:19:48;10.50;;;4.40;;
76761;SDS011;65705;51.032;13.790;2023-04-06T06:22:14;12.00;;;4.60;;
76761;SDS011;65705;51.032;13.790;2023-04-06T06:24:44;11.35;;;4.72;;
76761;SDS011;65705;51.032;13.790;2023-04-06T06:27:11;14.40;;;4.88;;
76761;SDS011;65705;51.032;13.790;2023-04-06T06:29:37;13.07;;;4.90;;
76761;SDS011;65705;51.032;13.790;2023-04-06T06:32:03;14.35;;;4.72;;
76761;SDS011;65705;51.032;13.790;2023-04-06T06:34:29;8.60;;;4.25;;
76761;SDS011;65705;51.032;13.790;2023-04-06T06:36:57;12.45;;;4.22;;
76761;SDS011;65705;51.032;13.790;2023-04-06T06:39:23;9.07;;;4.30;;
76761;SDS011;65705;51.032;13.790;2023-04-06T06:41:50;11.65;;;4.55;;
76761;SDS011;65705;51.032;13.790;2023-04-06T06:44:16;11.95;;;4.50;;
76761;SDS011;65705;51.032;13.790;2023-04-06T06:46:43;8.65;;;4.20;;
76761;SDS011;65705;51.032;13.790;2023-04-06T06:49:09;8.32;;;3.80;;
76761;SDS011;65705;51.032;13.790;2023-04-06T06:51:36;11.07;;;4.43;;
76761;SDS011;65705;51.032;13.790;2023-04-06T06:54:02;9.27;;;4.45;;
76761;SDS011;65705;51.032;13.790;2023-04-06T06:56:28;10.88;;;4.07;;
76761;SDS011;65705;51.032;13.790;2023-04-06T06:58:54;7.93;;;3.70;;
76761;SDS011;65705;51.032;13.790;2023-04-06T07:01:20;7.90;;;4.22;;
76761;SDS011;65705;51.032;13.790;2023-04-06T07:03:46;9.55;;;4.20;;
76761;SDS011;65705;51.032;13.790;2023-04-06T07:06:11;8.18;;;3.90;;
76761;SDS011;65705;51.032;13.790;2023-04-06T07:08:39;10.27;;;4.57;;
76761;SDS011;65705;51.032;13.790;2023-04-06T07:11:05;9.40;;;3.85;;
76761;SDS011;65705;51.032;13.790;2023-04-06T07:13:30;10.32;;;4.10;;
76761;SDS011;65705;51.032;13.790;2023-04-06T07:15:57;9.63;;;4.45;;
76761;SDS011;65705;51.032;13.790;2023-04-06T07:18:23;11.60;;;4.80;;
76761;SDS011;65705;51.032;13.790;2023-04-06T07:20:49;8.82;;;4.13;;
76761;SDS011;65705;51.032;13.790;2023-04-06T07:23:16;10.20;;;4.80;;
76761;SDS011;65705;51.032;13.790;2023-04-06T07:25:42;12.90;;;5.18;;
76761;SDS011;65705;51.032;13.790;2023-04-06T07:28:09;9.45;;;4.13;;
76761;SDS011;65705;51.032;13.790;2023-04-06T07:30:36;8.82;;;4.13;;
76761;SDS011;65705;51.032;13.790;2023-04-06T07:33:02;14.30;;;4.00;;
76761;SDS011;65705;51.032;13.790;2023-04-06T07:35:28;9.85;;;4.22;;
76761;SDS011;65705;51.032;13.790;2023-04-06T07:37:56;10.95;;;4.05;;
76761;SDS011;65705;51.032;13.790;2023-04-06T07:40:23;12.63;;;5.60;;
76761;SDS011;65705;51.032;13.790;2023-04-06T07:42:49;18.17;;;7.72;;
76761;SDS011;65705;51.032;13.790;2023-04-06T07:45:15;8.93;;;4.32;;
76761;SDS011;65705;51.032;13.790;2023-04-06T07:47:42;8.55;;;3.67;;
76761;SDS011;65705;51.032;13.790;2023-04-06T07:50:08;11.50;;;4.32;;
76761;SDS011;65705;51.032;13.790;2023-04-06T07:52:36;7.80;;;3.83;;
76761;SDS011;65705;51.032;13.790;2023-04-06T07:55:02;8.23;;;3.83;;
76761;SDS011;65705;51.032;13.790;2023-04-06T07:57:28;11.15;;;4.03;;
76761;SDS011;65705;51.032;13.790;2023-04-06T07:59:53;8.95;;;3.58;;
76761;SDS011;65705;51.032;13.790;2023-04-06T08:02:19;11.40;;;4.65;;
76761;SDS011;65705;51.032;13.790;2023-04-06T08:04:45;11.98;;;5.22;;
76761;SDS011;65705;51.032;13.790;2023-04-06T08:07:11;12.95;;;4.90;;
76761;SDS011;65705;51.032;13.790;2023-04-06T08:09:37;10.77;;;4.35;;
76761;SDS011;65705;51.032;13.790;2023-04-06T08:12:03;8.43;;;3.90;;
76761;SDS011;65705;51.032;13.790;2023-04-06T08:14:29;8.60;;;3.30;;
76761;SDS011;65705;51.032;13.790;2023-04-06T08:16:55;8.73;;;3.70;;
76761;SDS011;65705;51.032;13.790;2023-04-06T08:19:21;9.70;;;3.13;;
76761;SDS011;65705;51.032;13.790;2023-04-06T08:21:46;8.25;;;3.95;;
76761;SDS011;65705;51.032;13.790;2023-04-06T08:24:13;8.55;;;3.65;;
76761;SDS011;65705;51.032;13.790;2023-04-06T08:26:39;7.75;;;3.17;;
76761;SDS011;65705;51.032;13.790;2023-04-06T08:29:05;9.63;;;3.33;;
76761;SDS011;65705;51.032;13.790;2023-04-06T08:31:35;8.00;;;3.47;;
76761;SDS011;65705;51.032;13.790;2023-04-06T08:34:03;8.88;;;3.65;;
76761;SDS011;65705;51.032;13.790;2023-04-06T08:36:29;8.75;;;3.38;;
76761;SDS011;65705;51.032;13.790;2023-04-06T08:38:56;7.28;;;3.47;;
76761;SDS011;65705;51.032;13.790;2023-04-06T08:41:22;7.47;;;3.20;;
76761;SDS011;65705;51.032;13.790;2023-04-06T08:43:55;7.68;;;3.30;;
76761;SDS011;65705;51.032;13.790;2023-04-06T08:46:22;6.93;;;3.10;;
76761;SDS011;65705;51.032;13.790;2023-04-06T08:48:54;8.27;;;2.97;;
76761;SDS011;65705;51.032;13.790;2023-04-06T08:51:21;8.50;;;3.55;;
76761;SDS011;65705;51.032;13.790;2023-04-06T08:53:54;8.68;;;3.35;;
76761;SDS011;65705;51.032;13.790;2023-04-06T08:56:22;6.97;;;3.70;;
76761;SDS011;65705;51.032;13.790;2023-04-06T08:58:53;7.00;;;2.70;;
76761;SDS011;65705;51.032;13.790;2023-04-06T09:01:23;6.35;;;2.75;;
76761;SDS011;65705;51.032;13.790;2023-04-06T09:03:56;6.30;;;2.75;;
76761;SDS011;65705;51.032;13.790;2023-04-06T09:06:25;6.38;;;2.60;;
76761;SDS011;65705;51.032;13.790;2023-04-06T09:08:52;5.28;;;2.00;;
76761;SDS011;65705;51.032;13.790;2023-04-06T09:11:19;6.68;;;2.55;;
76761;SDS011;65705;51.032;13.790;2023-04-06T09:13:46;7.00;;;2.72;;
76761;SDS011;65705;51.032;13.790;2023-04-06T09:16:16;5.63;;;2.50;;
76761;SDS011;65705;51.032;13.790;2023-04-06T09:18:42;5.20;;;2.50;;
76761;SDS011;65705;51.032;13.790;2023-04-06T09:21:08;5.38;;;2.65;;
76761;SDS011;65705;51.032;13.790;2023-04-06T09:23:35;10.57;;;2.45;;
76761;SDS011;65705;51.032;13.790;2023-04-06T09:26:14;5.05;;;2.20;;
76761;SDS011;65705;51.032;13.790;2023-04-06T09:28:43;7.03;;;2.60;;
76761;SDS011;65705;51.032;13.790;2023-04-06T09:31:13;5.38;;;2.30;;
76761;SDS011;65705;51.032;13.790;2023-04-06T09:33:41;10.35;;;2.70;;
76761;SDS011;65705;51.032;13.790;2023-04-06T09:36:08;5.43;;;2.33;;
76761;SDS011;65705;51.032;13.790;2023-04-06T09:38:50;4.95;;;2.28;;
76761;SDS011;65705;51.032;13.790;2023-04-06T09:41:27;4.05;;;2.25;;
76761;SDS011;65705;51.032;13.790;2023-04-06T09:44:07;5.35;;;2.60;;
76761;SDS011;65705;51.032;13.790;2023-04-06T09:46:38;5.85;;;2.40;;
76761;SDS011;65705;51.032;13.790;2023-04-06T09:49:04;4.38;;;2.35;;
76761;SDS011;65705;51.032;13.790;2023-04-06T09:51:32;5.10;;;2.25;;
76761;SDS011;65705;51.032;13.790;2023-04-06T09:54:02;4.18;;;2.20;;
76761;SDS011;65705;51.032;13.790;2023-04-06T09:56:34;5.82;;;2.83;;
76761;SDS011;65705;51.032;13.790;2023-04-06T09:59:10;7.97;;;2.88;;
76761;SDS011;65705;51.032;13.790;2023-04-06T10:01:51;6.63;;;2.53;;
76761;SDS011;65705;51.032;13.790;2023-04-06T10:04:40;6.22;;;3.03;;
76761;SDS011;65705;51.032;13.790;2023-04-06T10:07:10;6.63;;;2.08;;
76761;SDS011;65705;51.032;13.790;2023-04-06T10:09:37;4.20;;;2.10;;
76761;SDS011;65705;51.032;13.790;2023-04-06T10:12:04;5.70;;;2.30;;
76761;SDS011;65705;51.032;13.790;2023-04-06T10:14:33;4.63;;;2.28;;
76761;SDS011;65705;51.032;13.790;2023-04-06T10:17:03;4.35;;;2.10;;
76761;SDS011;65705;51.032;13.790;2023-04-06T10:19:33;5.60;;;2.38;;
76761;SDS011;65705;51.032;13.790;2023-04-06T10:22:05;4.47;;;1.92;;
76761;SDS011;65705;51.032;13.790;2023-04-06T10:27:02;5.07;;;2.10;;
76761;SDS011;65705;51.032;13.790;2023-04-06T10:29:28;5.95;;;2.50;;
76761;SDS011;65705;51.032;13.790;2023-04-06T10:32:05;4.93;;;2.25;;
76761;SDS011;65705;51.032;13.790;2023-04-06T10:34:35;4.18;;;2.42;;
76761;SDS011;65705;51.032;13.790;2023-04-06T10:37:10;5.40;;;2.00;;
76761;SDS011;65705;51.032;13.790;2023-04-06T10:39:46;5.07;;;2.10;;
76761;SDS011;65705;51.032;13.790;2023-04-06T10:42:23;5.53;;;2.28;;
76761;SDS011;65705;51.032;13.790;2023-04-06T10:44:50;5.72;;;2.42;;
76761;SDS011;65705;51.032;13.790;2023-04-06T10:47:17;5.15;;;2.67;;
76761;SDS011;65705;51.032;13.790;2023-04-06T10:49:43;3.55;;;1.73;;
76761;SDS011;65705;51.032;13.790;2023-04-06T10:52:09;4.00;;;2.00;;
76761;SDS011;65705;51.032;13.790;2023-04-06T10:54:38;6.57;;;2.70;;
76761;SDS011;65705;51.032;13.790;2023-04-06T10:57:07;7.63;;;2.50;;
76761;SDS011;65705;51.032;13.790;2023-04-06T10:59:33;5.30;;;1.92;;
76761;SDS011;65705;51.032;13.790;2023-04-06T11:01:59;4.15;;;1.92;;
76761;SDS011;65705;51.032;13.790;2023-04-06T11:04:25;4.00;;;1.95;;
76761;SDS011;65705;51.032;13.790;2023-04-06T11:06:50;4.18;;;2.05;;
76761;SDS011;65705;51.032;13.790;2023-04-06T11:09:23;7.18;;;1.98;;
76761;SDS011;65705;51.032;13.790;2023-04-06T11:11:53;4.57;;;2.25;;
76761;SDS011;65705;51.032;13.790;2023-04-06T11:14:23;6.32;;;2.58;;
76761;SDS011;65705;51.032;13.790;2023-04-06T11:16:49;5.82;;;2.03;;
76761;SDS011;65705;51.032;13.790;2023-04-06T11:19:15;5.40;;;2.30;;
76761;SDS011;65705;51.032;13.790;2023-04-06T11:21:45;6.28;;;1.95;;
76761;SDS011;65705;51.032;13.790;2023-04-06T11:24:15;6.07;;;2.20;;
76761;SDS011;65705;51.032;13.790;2023-04-06T11:29:16;5.95;;;2.30;;
76761;SDS011;65705;51.032;13.790;2023-04-06T11:31:47;7.80;;;2.20;;
76761;SDS011;65705;51.032;13.790;2023-04-06T11:34:18;5.25;;;2.17;;
76761;SDS011;65705;51.032;13.790;2023-04-06T11:36:46;4.57;;;1.88;;
76761;SDS011;65705;51.032;13.790;2023-04-06T11:39:24;7.47;;;2.50;;
76761;SDS011;65705;51.032;13.790;2023-04-06T11:41:53;3.80;;;2.03;;
76761;SDS011;65705;51.032;13.790;2023-04-06T11:44:28;7.38;;;2.03;;
76761;SDS011;65705;51.032;13.790;2023-04-06T11:46:57;4.82;;;2.38;;
76761;SDS011;65705;51.032;13.790;2023-04-06T11:49:30;5.10;;;2.10;;
76761;SDS011;65705;51.032;13.790;2023-04-06T11:51:57;5.93;;;2.20;;
76761;SDS011;65705;51.032;13.790;2023-04-06T11:54:37;4.13;;;1.85;;
76761;SDS011;65705;51.032;13.790;2023-04-06T11:57:03;4.40;;;2.10;;
76761;SDS011;65705;51.032;13.790;2023-04-06T11:59:33;4.75;;;2.05;;
76761;SDS011;65705;51.032;13.790;2023-04-06T12:02:00;5.00;;;2.28;;
76761;SDS011;65705;51.032;13.790;2023-04-06T12:04:27;4.97;;;2.50;;
76761;SDS011;65705;51.032;13.790;2023-04-06T12:06:52;4.82;;;2.17;;
76761;SDS011;65705;51.032;13.790;2023-04-06T12:09:18;8.48;;;2.30;;
76761;SDS011;65705;51.032;13.790;2023-04-06T12:11:44;5.45;;;2.38;;
76761;SDS011;65705;51.032;13.790;2023-04-06T12:14:10;5.28;;;2.20;;
76761;SDS011;65705;51.032;13.790;2023-04-06T12:16:36;3.38;;;1.70;;
76761;SDS011;65705;51.032;13.790;2023-04-06T12:19:02;3.92;;;2.22;;
76761;SDS011;65705;51.032;13.790;2023-04-06T12:21:29;5.00;;;2.53;;
76761;SDS011;65705;51.032;13.790;2023-04-06T12:23:59;4.18;;;2.08;;
76761;SDS011;65705;51.032;13.790;2023-04-06T12:26:25;7.03;;;2.13;;
76761;SDS011;65705;51.032;13.790;2023-04-06T12:28:51;6.75;;;3.00;;
76761;SDS011;65705;51.032;13.790;2023-04-06T12:31:18;6.25;;;2.63;;
76761;SDS011;65705;51.032;13.790;2023-04-06T12:33:48;7.82;;;3.58;;
76761;SDS011;65705;51.032;13.790;2023-04-06T12:36:16;11.40;;;3.00;;
76761;SDS011;65705;51.032;13.790;2023-04-06T12:38:49;5.63;;;2.70;;
76761;SDS011;65705;51.032;13.790;2023-04-06T12:43:42;4.35;;;1.83;;
76761;SDS011;65705;51.032;13.790;2023-04-06T12:46:09;6.85;;;1.98;;
76761;SDS011;65705;51.032;13.790;2023-04-06T12:48:35;5.80;;;2.17;;
76761;SDS011;65705;51.032;13.790;2023-04-06T12:51:02;4.35;;;2.05;;
76761;SDS011;65705;51.032;13.790;2023-04-06T12:53:31;6.13;;;1.92;;
76761;SDS011;65705;51.032;13.790;2023-04-06T12:55:58;8.57;;;1.95;;
76761;SDS011;65705;51.032;13.790;2023-04-06T12:58:25;5.22;;;1.83;;
76761;SDS011;65705;51.032;13.790;2023-04-06T13:00:55;6.85;;;2.03;;
76761;SDS011;65705;51.032;13.790;2023-04-06T13:03:21;3.35;;;1.80;;
76761;SDS011;65705;51.032;13.790;2023-04-06T13:05:48;5.50;;;1.75;;
76761;SDS011;65705;51.032;13.790;2023-04-06T13:08:15;8.27;;;3.55;;
76761;SDS011;65705;51.032;13.790;2023-04-06T13:10:48;6.00;;;2.47;;
76761;SDS011;65705;51.032;13.790;2023-04-06T13:13:16;4.40;;;2.08;;
76761;SDS011;65705;51.032;13.790;2023-04-06T13:15:42;3.45;;;1.70;;
76761;SDS011;65705;51.032;13.790;2023-04-06T13:18:08;3.47;;;1.80;;
76761;SDS011;65705;51.032;13.790;2023-04-06T13:20:34;4.22;;;2.03;;
76761;SDS011;65705;51.032;13.790;2023-04-06T13:23:01;7.03;;;2.50;;
76761;SDS011;65705;51.032;13.790;2023-04-06T13:25:27;5.15;;;2.03;;
76761;SDS011;65705;51.032;13.790;2023-04-06T13:27:58;3.85;;;1.90;;
76761;SDS011;65705;51.032;13.790;2023-04-06T13:30:24;4.43;;;2.03;;
76761;SDS011;65705;51.032;13.790;2023-04-06T13:32:50;4.78;;;1.90;;
76761;SDS011;65705;51.032;13.790;2023-04-06T13:35:16;5.40;;;2.40;;
76761;SDS011;65705;51.032;13.790;2023-04-06T13:37:43;6.28;;;1.88;;
76761;SDS011;65705;51.032;13.790;2023-04-06T13:40:09;4.82;;;2.20;;
76761;SDS011;65705;51.032;13.790;2023-04-06T13:42:35;4.97;;;2.13;;
76761;SDS011;65705;51.032;13.790;2023-04-06T13:45:03;4.63;;;2.13;;
76761;SDS011;65705;51.032;13.790;2023-04-06T13:47:30;5.13;;;2.30;;
76761;SDS011;65705;51.032;13.790;2023-04-06T13:49:55;5.80;;;2.30;;
76761;SDS011;65705;51.032;13.790;2023-04-06T13:52:21;3.88;;;2.00;;
76761;SDS011;65705;51.032;13.790;2023-04-06T13:54:48;5.93;;;2.42;;
76761;SDS011;65705;51.032;13.790;2023-04-06T13:57:14;4.90;;;2.00;;
76761;SDS011;65705;51.032;13.790;2023-04-06T13:59:40;5.22;;;1.90;;
76761;SDS011;65705;51.032;13.790;2023-04-06T14:02:07;6.25;;;2.10;;
76761;SDS011;65705;51.032;13.790;2023-04-06T14:04:34;6.63;;;2.83;;
76761;SDS011;65705;51.032;13.790;2023-04-06T14:07:00;4.07;;;2.03;;
76761;SDS011;65705;51.032;13.790;2023-04-06T14:09:27;5.75;;;2.15;;
76761;SDS011;65705;51.032;13.790;2023-04-06T14:11:53;5.88;;;2.30;;
76761;SDS011;65705;51.032;13.790;2023-04-06T14:14:19;4.70;;;2.33;;
76761;SDS011;65705;51.032;13.790;2023-04-06T14:16:46;5.68;;;2.45;;
76761;SDS011;65705;51.032;13.790;2023-04-06T14:19:14;7.53;;;2.28;;
76761;SDS011;65705;51.032;13.790;2023-04-06T14:21:41;4.95;;;2.17;;
76761;SDS011;65705;51.032;13.790;2023-04-06T14:24:08;5.50;;;2.25;;
76761;SDS011;65705;51.032;13.790;2023-04-06T14:26:35;4.30;;;2.28;;
76761;SDS011;65705;51.032;13.790;2023-04-06T14:29:02;5.35;;;2.17;;
76761;SDS011;65705;51.032;13.790;2023-04-06T14:31:29;6.72;;;2.30;;
76761;SDS011;65705;51.032;13.790;2023-04-06T14:33:55;7.00;;;1.98;;
76761;SDS011;65705;51.032;13.790;2023-04-06T14:36:22;4.60;;;1.83;;
76761;SDS011;65705;51.032;13.790;2023-04-06T14:38:48;5.82;;;2.17;;
76761;SDS011;65705;51.032;13.790;2023-04-06T14:41:17;4.05;;;2.03;;
76761;SDS011;65705;51.032;13.790;2023-04-06T14:43:44;4.70;;;1.98;;
76761;SDS011;65705;51.032;13.790;2023-04-06T14:46:11;4.40;;;1.85;;
76761;SDS011;65705;51.032;13.790;2023-04-06T14:48:36;4.63;;;2.10;;
76761;SDS011;65705;51.032;13.790;2023-04-06T14:51:02;3.72;;;1.85;;
76761;SDS011;65705;51.032;13.790;2023-04-06T14:53:28;4.90;;;2.35;;